createdAt,value
2022-10-18T00:00:06.324Z,19.20
2022-10-18T00:02:33.116Z,19.20
2022-10-18T00:04:59.742Z,19.20
2022-10-18T00:07:26.294Z,19.20
2022-10-18T00:09:52.903Z,19.20
2022-10-18T00:12:19.552Z,19.20
2022-10-18T00:14:48.146Z,19.20
2022-10-18T00:17:14.690Z,19.20
2022-10-18T00:19:41.332Z,19.20
2022-10-18T00:22:07.851Z,19.20
2022-10-18T00:24:34.394Z,19.20
2022-10-18T00:27:00.917Z,19.20
2022-10-18T00:29:27.495Z,19.20
2022-10-18T00:31:54.073Z,19.10
2022-10-18T00:34:20.662Z,18.90
2022-10-18T00:36:47.210Z,19.10
2022-10-18T00:39:19.192Z,19.00
2022-10-18T00:41:45.722Z,18.90
2022-10-18T00:44:12.264Z,18.90
2022-10-18T00:46:40.353Z,18.90
2022-10-18T00:49:12.240Z,18.90
2022-10-18T00:51:41.392Z,18.90
2022-10-18T00:54:08.217Z,18.90
2022-10-18T00:56:34.997Z,18.90
2022-10-18T00:59:01.686Z,19.00
2022-10-18T01:01:28.651Z,18.90
2022-10-18T01:03:55.786Z,19.00
2022-10-18T01:06:22.365Z,19.00
2022-10-18T01:08:48.912Z,19.00
2022-10-18T01:11:33.402Z,19.00
2022-10-18T01:13:59.936Z,19.00
2022-10-18T01:16:32.815Z,19.00
2022-10-18T01:19:18.222Z,19.00
2022-10-18T01:21:50.888Z,19.00
2022-10-18T01:24:29.437Z,19.00
2022-10-18T01:27:07.909Z,19.00
2022-10-18T01:29:37.566Z,19.00
2022-10-18T01:32:10.057Z,19.00
2022-10-18T01:34:38.662Z,19.00
2022-10-18T01:37:08.018Z,19.00
2022-10-18T01:39:36.761Z,19.00
2022-10-18T01:42:06.143Z,19.00
2022-10-18T01:44:34.038Z,19.00
2022-10-18T01:47:01.115Z,19.00
2022-10-18T01:49:27.713Z,18.90
2022-10-18T01:51:54.330Z,18.90
2022-10-18T01:54:24.075Z,18.90
2022-10-18T01:56:58.562Z,18.90
2022-10-18T01:59:44.111Z,18.90
2022-10-18T02:02:11.056Z,18.90
2022-10-18T02:05:07.033Z,18.90
2022-10-18T02:07:33.633Z,18.90
2022-10-18T02:10:26.237Z,18.90
2022-10-18T02:12:54.000Z,18.90
2022-10-18T02:15:22.665Z,18.90
2022-10-18T02:17:50.217Z,18.90
2022-10-18T02:20:19.571Z,18.90
2022-10-18T02:22:47.157Z,18.80
2022-10-18T02:25:16.427Z,18.80
2022-10-18T02:27:43.036Z,18.80
2022-10-18T02:30:10.368Z,18.80
2022-10-18T02:32:39.963Z,18.70
2022-10-18T02:35:10.844Z,18.60
2022-10-18T02:37:38.955Z,18.60
2022-10-18T02:40:07.217Z,18.60
2022-10-18T02:42:38.510Z,18.60
2022-10-18T02:45:05.807Z,18.60
2022-10-18T02:47:33.021Z,18.60
2022-10-18T02:49:59.777Z,18.60
2022-10-18T02:52:26.303Z,18.60
2022-10-18T02:54:52.853Z,18.60
2022-10-18T02:57:19.450Z,18.60
2022-10-18T02:59:45.983Z,18.70
2022-10-18T03:02:12.552Z,18.70
2022-10-18T03:04:39.105Z,18.70
2022-10-18T03:07:05.632Z,18.70
2022-10-18T03:09:32.291Z,18.70
2022-10-18T03:11:59.363Z,18.70
2022-10-18T03:14:25.977Z,18.70
2022-10-18T03:16:52.529Z,18.70
2022-10-18T03:19:19.194Z,18.70
2022-10-18T03:21:45.895Z,18.80
2022-10-18T03:24:12.552Z,18.70
2022-10-18T03:26:39.104Z,18.70
2022-10-18T03:29:05.896Z,18.60
2022-10-18T03:31:33.661Z,18.40
2022-10-18T03:34:00.299Z,18.30
2022-10-18T03:36:26.991Z,18.30
2022-10-18T03:38:53.660Z,18.20
2022-10-18T03:41:20.838Z,18.10
2022-10-18T03:43:47.674Z,18.10
2022-10-18T03:46:14.222Z,18.10
2022-10-18T03:48:40.759Z,18.20
2022-10-18T03:51:07.328Z,18.20
2022-10-18T03:53:33.903Z,18.20
2022-10-18T03:56:00.545Z,18.30
2022-10-18T03:58:27.129Z,18.30
2022-10-18T04:00:54.281Z,18.30
2022-10-18T04:03:21.822Z,18.30
2022-10-18T04:05:49.172Z,18.30
2022-10-18T04:08:16.073Z,18.30
2022-10-18T04:10:43.095Z,18.40
2022-10-18T04:13:09.704Z,18.40
2022-10-18T04:15:36.343Z,18.40
2022-10-18T04:18:02.900Z,18.40
2022-10-18T04:20:29.494Z,18.40
2022-10-18T04:22:58.780Z,18.40
2022-10-18T04:25:25.414Z,18.40
2022-10-18T04:27:52.087Z,18.40
2022-10-18T04:30:18.714Z,18.40
2022-10-18T04:32:45.228Z,18.40
2022-10-18T04:35:11.812Z,18.30
2022-10-18T04:37:38.375Z,18.20
2022-10-18T04:40:05.274Z,18.10
2022-10-18T04:42:31.777Z,18.10
2022-10-18T04:44:58.352Z,18.10
2022-10-18T04:47:24.910Z,18.10
2022-10-18T04:49:51.484Z,18.20
2022-10-18T04:52:18.006Z,18.20
2022-10-18T04:54:44.534Z,18.20
2022-10-18T04:57:11.082Z,18.20
2022-10-18T04:59:37.691Z,18.30
2022-10-18T05:04:31.190Z,18.20
2022-10-18T05:06:57.729Z,18.20
2022-10-18T05:09:24.862Z,18.10
2022-10-18T05:11:51.453Z,18.10
2022-10-18T05:14:18.100Z,18.10
2022-10-18T05:16:44.666Z,18.10
2022-10-18T05:19:11.225Z,18.00
2022-10-18T05:21:37.797Z,18.00
2022-10-18T05:24:04.429Z,18.10
2022-10-18T05:26:31.001Z,18.10
2022-10-18T05:28:57.694Z,18.10
2022-10-18T05:31:24.331Z,18.00
2022-10-18T05:33:50.892Z,18.00
2022-10-18T05:36:17.586Z,17.90
2022-10-18T05:38:45.479Z,17.90
2022-10-18T05:41:12.542Z,17.90
2022-10-18T05:43:39.913Z,17.90
2022-10-18T05:46:13.641Z,17.90
2022-10-18T05:48:41.775Z,17.90
2022-10-18T05:51:08.477Z,17.90
2022-10-18T05:53:37.471Z,17.80
2022-10-18T05:56:04.733Z,17.80
2022-10-18T05:58:31.274Z,17.80
2022-10-18T06:00:58.781Z,17.80
2022-10-18T06:03:25.344Z,17.90
2022-10-18T06:05:51.888Z,17.90
2022-10-18T06:08:18.528Z,17.90
2022-10-18T06:10:45.211Z,17.90
2022-10-18T06:13:11.739Z,17.90
2022-10-18T06:15:38.297Z,17.80
2022-10-18T06:18:04.830Z,17.70
2022-10-18T06:20:31.393Z,17.70
2022-10-18T06:22:57.941Z,17.60
2022-10-18T06:25:24.491Z,17.60
2022-10-18T06:27:51.089Z,17.60
2022-10-18T06:30:17.698Z,17.50
2022-10-18T06:32:44.249Z,17.50
2022-10-18T06:35:10.853Z,17.60
2022-10-18T06:37:38.133Z,17.60
2022-10-18T06:40:05.357Z,17.70
2022-10-18T06:42:32.350Z,17.60
2022-10-18T06:45:00.385Z,17.70
2022-10-18T06:47:26.966Z,17.70
2022-10-18T06:49:53.599Z,17.70
2022-10-18T06:52:22.548Z,17.70
2022-10-18T06:54:49.180Z,17.80
2022-10-18T06:57:15.745Z,17.80
2022-10-18T06:59:43.139Z,17.80
2022-10-18T07:02:14.460Z,17.90
2022-10-18T07:04:41.053Z,17.90
2022-10-18T07:07:07.616Z,17.90
2022-10-18T07:09:34.296Z,17.90
2022-10-18T07:12:00.841Z,17.80
2022-10-18T07:14:29.140Z,17.80
2022-10-18T07:16:58.222Z,17.70
2022-10-18T07:19:24.772Z,17.70
2022-10-18T07:21:51.385Z,17.70
2022-10-18T07:24:17.943Z,17.70
2022-10-18T07:26:44.641Z,17.80
2022-10-18T07:29:11.987Z,17.80
2022-10-18T07:31:39.064Z,17.80
2022-10-18T07:34:05.850Z,17.90
2022-10-18T07:36:32.422Z,17.90
2022-10-18T07:38:59.622Z,18.00
2022-10-18T07:41:26.250Z,18.10
2022-10-18T07:43:53.407Z,18.10
2022-10-18T07:46:21.027Z,18.20
2022-10-18T07:48:47.632Z,18.20
2022-10-18T07:51:14.563Z,18.30
2022-10-18T07:53:41.435Z,18.30
2022-10-18T07:56:11.622Z,18.40
2022-10-18T07:58:38.209Z,18.40
2022-10-18T08:01:06.157Z,18.50
2022-10-18T08:03:32.980Z,18.50
2022-10-18T08:05:59.578Z,18.50
2022-10-18T08:08:26.298Z,18.60
2022-10-18T08:10:52.921Z,18.60
2022-10-18T08:13:19.479Z,18.70
2022-10-18T08:15:46.166Z,18.80
2022-10-18T08:18:13.085Z,18.80
2022-10-18T08:20:44.145Z,18.90
2022-10-18T08:23:10.944Z,18.90
2022-10-18T08:25:37.530Z,19.00
2022-10-18T08:28:04.172Z,19.10
2022-10-18T08:30:30.734Z,19.10
2022-10-18T08:32:57.334Z,19.10
2022-10-18T08:35:24.072Z,19.20
2022-10-18T08:37:51.256Z,19.10
2022-10-18T08:40:17.915Z,19.20
2022-10-18T08:43:04.849Z,19.20
2022-10-18T08:45:42.511Z,19.20
2022-10-18T08:48:41.929Z,19.20
2022-10-18T08:51:15.036Z,19.20
2022-10-18T08:54:02.712Z,19.20
2022-10-18T08:56:29.465Z,19.20
2022-10-18T08:58:56.028Z,19.10
2022-10-18T09:01:25.459Z,19.10
2022-10-18T09:04:01.887Z,19.10
2022-10-18T09:06:32.699Z,19.10
2022-10-18T09:09:06.711Z,19.10
2022-10-18T09:11:50.152Z,19.10
2022-10-18T09:14:35.051Z,19.10
2022-10-18T09:17:30.783Z,19.10
2022-10-18T09:22:42.570Z,19.30
2022-10-18T09:25:21.124Z,19.30
2022-10-18T09:27:52.434Z,19.40
2022-10-18T09:30:37.647Z,19.40
2022-10-18T09:33:10.864Z,19.40
2022-10-18T09:35:40.193Z,19.40
2022-10-18T09:38:10.469Z,19.40
2022-10-18T09:40:41.261Z,19.30
2022-10-18T09:43:13.903Z,19.30
2022-10-18T09:45:42.740Z,19.30
2022-10-18T09:48:15.491Z,19.30
2022-10-18T09:51:00.961Z,19.30
2022-10-18T09:53:36.828Z,19.20
2022-10-18T09:56:10.020Z,19.20
2022-10-18T09:58:44.157Z,19.10
2022-10-18T10:01:12.636Z,19.10
2022-10-18T10:03:39.420Z,19.20
2022-10-18T10:06:11.842Z,19.20
2022-10-18T10:08:42.147Z,19.30
2022-10-18T10:11:27.546Z,19.40
2022-10-18T10:13:57.380Z,19.50
2022-10-18T10:16:24.442Z,19.50
2022-10-18T10:18:54.302Z,19.50
2022-10-18T10:21:22.362Z,19.50
2022-10-18T10:23:55.914Z,19.50
2022-10-18T10:26:28.245Z,19.50
2022-10-18T10:28:55.079Z,19.40
2022-10-18T10:31:24.488Z,19.40
2022-10-18T10:34:06.418Z,19.40
2022-10-18T10:36:34.121Z,19.40
2022-10-18T10:39:18.216Z,19.40
2022-10-18T10:43:50.769Z,19.50
2022-10-18T10:46:20.618Z,19.70
2022-10-18T10:48:47.146Z,19.80
2022-10-18T10:51:14.481Z,20.10
2022-10-18T10:53:43.362Z,20.30
2022-10-18T10:56:18.180Z,20.50
2022-10-18T10:58:44.834Z,20.60
2022-10-18T11:01:41.674Z,20.70
2022-10-18T11:04:25.266Z,20.70
2022-10-18T11:07:04.412Z,20.80
2022-10-18T11:09:36.677Z,20.90
2022-10-18T11:12:13.580Z,20.90
2022-10-18T11:14:43.065Z,21.00
2022-10-18T11:17:15.646Z,21.10
2022-10-18T11:19:55.584Z,21.10
2022-10-18T11:22:23.751Z,21.20
2022-10-18T11:24:50.268Z,21.30
2022-10-18T11:29:27.252Z,21.30
2022-10-18T11:32:05.937Z,21.30
2022-10-18T11:34:51.341Z,21.30
2022-10-18T11:37:28.633Z,21.30
2022-10-18T11:40:15.371Z,21.20
2022-10-18T11:42:44.989Z,21.20
2022-10-18T11:45:28.452Z,21.20
2022-10-18T11:47:57.897Z,21.30
2022-10-18T11:50:33.623Z,21.30
2022-10-18T11:53:18.452Z,21.30
2022-10-18T11:55:45.040Z,21.40
2022-10-18T11:58:19.616Z,21.60
2022-10-18T12:00:52.389Z,21.60
2022-10-18T12:03:29.213Z,21.70
2022-10-18T12:05:57.203Z,21.80
2022-10-18T12:08:35.191Z,21.70
2022-10-18T12:11:06.645Z,21.80
2022-10-18T12:13:36.659Z,21.80
2022-10-18T12:16:04.257Z,21.80
2022-10-18T12:18:31.958Z,21.80
2022-10-18T12:20:59.302Z,21.80
2022-10-18T12:23:25.951Z,21.80
2022-10-18T12:25:59.087Z,21.90
2022-10-18T12:28:25.735Z,21.80
2022-10-18T12:31:15.373Z,21.90
2022-10-18T12:33:45.629Z,22.00
2022-10-18T12:36:21.239Z,22.00
2022-10-18T12:39:01.386Z,22.00
2022-10-18T12:41:30.278Z,22.00
2022-10-18T12:44:15.560Z,22.00
2022-10-18T12:47:02.540Z,21.90
2022-10-18T12:49:29.077Z,22.00
2022-10-18T12:52:05.750Z,21.90
2022-10-18T12:54:36.340Z,21.90
2022-10-18T12:57:04.930Z,21.80
2022-10-18T12:59:31.490Z,21.80
2022-10-18T13:01:58.140Z,21.70
2022-10-18T13:04:27.770Z,21.60
2022-10-18T13:06:57.177Z,21.60
2022-10-18T13:09:25.131Z,21.50
2022-10-18T13:11:55.113Z,21.30
2022-10-18T13:14:35.454Z,21.30
2022-10-18T13:17:07.248Z,21.30
2022-10-18T13:19:33.763Z,21.30
2022-10-18T13:22:09.187Z,21.30
2022-10-18T13:24:41.599Z,21.30
2022-10-18T13:27:35.919Z,21.30
2022-10-18T13:30:25.987Z,21.30
2022-10-18T13:32:52.566Z,21.40
2022-10-18T13:35:38.028Z,21.50
2022-10-18T13:38:08.769Z,21.70
2022-10-18T13:40:35.620Z,21.80
2022-10-18T13:43:20.883Z,21.80
2022-10-18T13:45:54.600Z,21.90
2022-10-18T13:48:27.198Z,22.00
2022-10-18T13:50:57.679Z,22.10
2022-10-18T13:53:30.565Z,22.30
2022-10-18T13:56:13.352Z,22.50
2022-10-18T13:58:53.833Z,22.70
2022-10-18T14:01:53.189Z,22.90
2022-10-18T14:04:25.907Z,23.00
2022-10-18T14:06:52.684Z,23.20
2022-10-18T14:12:07.887Z,23.40
2022-10-18T14:14:51.120Z,23.50
2022-10-18T14:17:23.444Z,23.50
2022-10-18T14:20:08.978Z,23.50
2022-10-18T14:22:43.223Z,23.50
2022-10-18T14:25:39.081Z,23.20
2022-10-18T14:28:27.353Z,23.00
2022-10-18T14:31:07.308Z,22.80
2022-10-18T14:33:45.335Z,22.60
2022-10-18T14:36:15.561Z,22.40
2022-10-18T14:38:47.432Z,22.20
2022-10-18T14:41:20.066Z,22.10
2022-10-18T14:43:47.973Z,22.10
2022-10-18T14:46:19.184Z,22.00
2022-10-18T14:48:52.638Z,22.00
2022-10-18T14:51:19.596Z,22.00
2022-10-18T14:53:46.615Z,21.90
2022-10-18T14:56:36.567Z,22.00
2022-10-18T14:59:04.781Z,22.00
2022-10-18T15:01:32.135Z,22.10
2022-10-18T15:03:59.889Z,22.20
2022-10-18T15:06:26.683Z,22.30
2022-10-18T15:08:55.512Z,22.30
2022-10-18T15:11:22.377Z,22.40
2022-10-18T15:13:53.969Z,22.40
2022-10-18T15:16:22.491Z,22.40
2022-10-18T15:19:09.381Z,22.40
2022-10-18T15:21:36.397Z,22.40
2022-10-18T15:24:19.533Z,22.40
2022-10-18T15:26:46.688Z,22.40
2022-10-18T15:29:17.862Z,22.40
2022-10-18T15:31:44.586Z,22.40
2022-10-18T15:34:15.368Z,22.30
2022-10-18T15:39:14.419Z,22.20
2022-10-18T15:41:41.039Z,22.20
2022-10-18T15:44:13.157Z,22.20
2022-10-18T15:46:40.833Z,22.10
2022-10-18T15:49:26.112Z,22.10
2022-10-18T15:52:12.618Z,22.00
2022-10-18T15:54:39.268Z,21.90
2022-10-18T15:57:12.193Z,21.90
2022-10-18T15:59:48.786Z,21.80
2022-10-18T16:02:15.580Z,21.60
2022-10-18T16:04:42.195Z,21.60
2022-10-18T16:07:10.697Z,21.50
2022-10-18T16:09:37.288Z,21.40
2022-10-18T16:12:04.562Z,21.30
2022-10-18T16:14:31.467Z,21.20
2022-10-18T16:17:03.389Z,21.10
2022-10-18T16:19:30.314Z,21.00
2022-10-18T16:21:56.913Z,20.90
2022-10-18T16:24:23.733Z,20.90
2022-10-18T16:26:50.698Z,20.90
2022-10-18T16:29:21.728Z,20.80
2022-10-18T16:31:49.757Z,20.80
2022-10-18T16:34:16.348Z,20.70
2022-10-18T16:36:43.383Z,20.70
2022-10-18T16:39:15.098Z,20.70
2022-10-18T16:41:41.740Z,20.60
2022-10-18T16:44:08.288Z,20.60
2022-10-18T16:46:35.265Z,20.50
2022-10-18T16:49:02.179Z,20.50
2022-10-18T16:51:29.063Z,20.40
2022-10-18T16:53:55.626Z,20.40
2022-10-18T16:56:26.705Z,20.30
2022-10-18T16:58:53.665Z,20.20
2022-10-18T17:01:21.334Z,20.20
2022-10-18T17:03:48.419Z,20.10
2022-10-18T17:06:16.757Z,20.00
2022-10-18T17:08:43.355Z,20.00
2022-10-18T17:11:10.686Z,19.90
2022-10-18T17:14:26.544Z,19.80
2022-10-18T17:17:54.439Z,19.70
2022-10-18T17:20:26.304Z,19.70
2022-10-18T17:22:53.544Z,19.60
2022-10-18T17:25:20.975Z,19.60
2022-10-18T17:27:47.627Z,19.50
2022-10-18T17:30:15.072Z,19.50
2022-10-18T17:32:44.756Z,19.40
2022-10-18T17:35:12.639Z,19.40
2022-10-18T17:37:44.007Z,19.30
2022-10-18T17:40:12.731Z,19.30
2022-10-18T17:42:39.273Z,19.20
2022-10-18T17:45:36.371Z,19.10
2022-10-18T17:48:03.360Z,19.10
2022-10-18T17:50:30.156Z,19.10
2022-10-18T17:52:57.369Z,19.00
2022-10-18T17:55:24.250Z,19.00
2022-10-18T17:57:51.768Z,18.90
2022-10-18T18:00:18.802Z,18.90
2022-10-18T18:02:47.020Z,18.90
2022-10-18T18:05:13.927Z,18.80
2022-10-18T18:07:40.801Z,18.80
2022-10-18T18:10:08.478Z,18.80
2022-10-18T18:12:35.507Z,18.70
2022-10-18T18:15:02.565Z,18.70
2022-10-18T18:17:34.311Z,18.60
2022-10-18T18:20:02.931Z,18.60
2022-10-18T18:22:30.282Z,18.50
2022-10-18T18:24:57.252Z,18.50
2022-10-18T18:27:24.092Z,18.40
2022-10-18T18:29:50.892Z,18.40
2022-10-18T18:32:17.894Z,18.30
2022-10-18T18:34:44.730Z,18.30
2022-10-18T18:37:13.132Z,18.30
2022-10-18T18:39:40.100Z,18.20
2022-10-18T18:42:07.504Z,18.20
2022-10-18T18:44:35.026Z,18.20
2022-10-18T18:47:02.058Z,18.10
2022-10-18T18:49:29.096Z,18.10
2022-10-18T18:51:55.943Z,18.10
2022-10-18T18:54:24.871Z,18.00
2022-10-18T18:56:51.747Z,18.00
2022-10-18T18:59:18.582Z,18.00
2022-10-18T19:01:45.554Z,18.00
2022-10-18T19:04:12.454Z,18.00
2022-10-18T19:06:41.645Z,17.90
2022-10-18T19:09:18.277Z,17.90
2022-10-18T19:11:48.538Z,17.90
2022-10-18T19:14:15.860Z,17.90
2022-10-18T19:16:47.423Z,17.90
2022-10-18T19:19:16.216Z,17.80
2022-10-18T19:21:44.997Z,17.80
2022-10-18T19:24:12.003Z,17.80
2022-10-18T19:26:44.710Z,17.70
2022-10-18T19:29:14.758Z,17.80
2022-10-18T19:31:42.302Z,17.70
2022-10-18T19:34:11.174Z,17.70
2022-10-18T19:36:39.174Z,17.70
2022-10-18T19:39:07.956Z,17.60
2022-10-18T19:41:34.763Z,17.60
2022-10-18T19:44:01.656Z,17.60
2022-10-18T19:46:30.069Z,17.50
2022-10-18T19:48:56.954Z,17.50
2022-10-18T19:51:27.913Z,17.40
2022-10-18T19:53:55.777Z,17.40
2022-10-18T19:56:24.086Z,17.40
2022-10-18T19:58:51.317Z,17.40
2022-10-18T20:01:19.275Z,17.40
2022-10-18T20:03:48.114Z,17.30
2022-10-18T20:06:15.619Z,17.30
2022-10-18T20:11:16.042Z,17.30
2022-10-18T20:13:43.496Z,17.30
2022-10-18T20:16:12.062Z,17.30
2022-10-18T20:18:39.330Z,17.30
2022-10-18T20:21:08.676Z,17.30
2022-10-18T20:23:36.373Z,17.30
2022-10-18T20:26:05.223Z,17.30
2022-10-18T20:28:33.012Z,17.30
2022-10-18T20:31:01.596Z,17.40
2022-10-18T20:33:28.624Z,17.40
2022-10-18T20:35:55.859Z,17.30
2022-10-18T20:38:24.124Z,17.40
2022-10-18T20:40:50.918Z,17.30
2022-10-18T20:43:17.993Z,17.40
2022-10-18T20:45:44.857Z,17.40
2022-10-18T20:48:11.737Z,17.40
2022-10-18T20:50:41.994Z,17.40
2022-10-18T20:53:08.865Z,17.30
2022-10-18T20:55:38.735Z,17.40
2022-10-18T20:58:06.658Z,17.30
2022-10-18T21:00:34.970Z,17.30
2022-10-18T21:03:02.099Z,17.30
2022-10-18T21:05:29.236Z,17.20
2022-10-18T21:07:56.590Z,17.20
2022-10-18T21:10:23.665Z,17.10
2022-10-18T21:12:52.252Z,17.10
2022-10-18T21:15:19.661Z,17.00
2022-10-18T21:17:50.998Z,17.00
2022-10-18T21:20:18.015Z,16.90
2022-10-18T21:22:44.865Z,16.80
2022-10-18T21:25:11.881Z,16.80
2022-10-18T21:27:38.707Z,16.70
2022-10-18T21:30:07.806Z,16.60
2022-10-18T21:32:34.929Z,16.60
2022-10-18T21:35:02.096Z,16.50
2022-10-18T21:37:28.917Z,16.50
2022-10-18T21:39:55.948Z,16.50
2022-10-18T21:42:22.844Z,16.50
2022-10-18T21:44:49.714Z,16.60
2022-10-18T21:47:17.918Z,16.60
2022-10-18T21:49:44.786Z,16.70
2022-10-18T21:52:11.733Z,16.70
2022-10-18T21:54:38.570Z,16.80
2022-10-18T21:57:05.510Z,16.80
2022-10-18T21:59:32.305Z,16.80
2022-10-18T22:02:01.147Z,16.90
2022-10-18T22:04:35.482Z,16.90
2022-10-18T22:07:04.146Z,16.90
2022-10-18T22:09:31.147Z,16.90
2022-10-18T22:11:58.073Z,16.90
2022-10-18T22:14:24.994Z,16.90
2022-10-18T22:16:52.098Z,16.90
2022-10-18T22:19:19.014Z,16.90
2022-10-18T22:21:47.498Z,16.80
2022-10-18T22:24:14.437Z,16.80
2022-10-18T22:26:42.678Z,16.80
2022-10-18T22:29:12.362Z,16.80
2022-10-18T22:31:41.117Z,16.80
2022-10-18T22:34:10.806Z,16.80
2022-10-18T22:36:37.663Z,16.80
2022-10-18T22:39:06.289Z,16.80
2022-10-18T22:41:33.989Z,16.80
2022-10-18T22:44:03.519Z,16.70
2022-10-18T22:46:31.433Z,16.70
2022-10-18T22:48:58.466Z,16.70
2022-10-18T22:51:25.294Z,16.60
2022-10-18T22:53:52.147Z,16.60
2022-10-18T22:56:22.031Z,16.60
2022-10-18T22:58:49.430Z,16.60
2022-10-18T23:01:18.286Z,16.60
2022-10-18T23:03:45.239Z,16.60
2022-10-18T23:06:20.175Z,16.60
2022-10-18T23:08:47.124Z,16.60
2022-10-18T23:11:14.303Z,16.60
2022-10-18T23:13:42.493Z,16.60
2022-10-18T23:16:09.530Z,16.60
2022-10-18T23:18:36.803Z,16.60
2022-10-18T23:21:04.749Z,16.60
2022-10-18T23:23:34.812Z,16.60
2022-10-18T23:26:03.253Z,16.50
2022-10-18T23:28:30.201Z,16.50
2022-10-18T23:30:58.453Z,16.50
2022-10-18T23:33:25.251Z,16.50
2022-10-18T23:35:52.034Z,16.50
2022-10-18T23:38:18.926Z,16.50
2022-10-18T23:40:45.708Z,16.40
2022-10-18T23:43:12.521Z,16.40
2022-10-18T23:45:40.796Z,16.40
2022-10-18T23:48:08.965Z,16.40
2022-10-18T23:50:35.769Z,16.40
2022-10-18T23:53:02.616Z,16.40
2022-10-18T23:55:29.426Z,16.30
2022-10-18T23:57:56.246Z,16.30
